sensor_id;sensor_type;location;lat;lon;timestamp;P1;durP1;ratioP1;P2;durP2;ratioP2
62888;SDS011;48980;41.704;-8.820;2022-07-03T00:00:13;27.20;;;5.07;;
62888;SDS011;48980;41.704;-8.820;2022-07-03T00:02:13;35.92;;;5.95;;
62888;SDS011;48980;41.704;-8.820;2022-07-03T00:04:14;34.83;;;5.47;;
62888;SDS011;48980;41.704;-8.820;2022-07-03T00:06:15;28.00;;;5.38;;
62888;SDS011;48980;41.704;-8.820;2022-07-03T00:08:16;22.38;;;4.82;;
62888;SDS011;48980;41.704;-8.820;2022-07-03T00:10:17;25.15;;;4.90;;
62888;SDS011;48980;41.704;-8.820;2022-07-03T00:12:17;13.03;;;4.50;;
62888;SDS011;48980;41.704;-8.820;2022-07-03T00:14:18;30.75;;;4.55;;
62888;SDS011;48980;41.704;-8.820;2022-07-03T00:16:19;26.87;;;5.33;;
62888;SDS011;48980;41.704;-8.820;2022-07-03T00:18:20;21.42;;;4.63;;
62888;SDS011;48980;41.704;-8.820;2022-07-03T00:20:21;18.27;;;5.20;;
62888;SDS011;48980;41.704;-8.820;2022-07-03T00:22:26;32.25;;;5.07;;
62888;SDS011;48980;41.704;-8.820;2022-07-03T00:26:45;30.25;;;5.25;;
62888;SDS011;48980;41.704;-8.820;2022-07-03T00:28:52;16.15;;;4.10;;
62888;SDS011;48980;41.704;-8.820;2022-07-03T00:30:55;17.10;;;4.00;;
62888;SDS011;48980;41.704;-8.820;2022-07-03T00:32:55;20.58;;;4.95;;
62888;SDS011;48980;41.704;-8.820;2022-07-03T00:34:57;18.65;;;4.70;;
62888;SDS011;48980;41.704;-8.820;2022-07-03T00:36:58;20.85;;;5.38;;
62888;SDS011;48980;41.704;-8.820;2022-07-03T00:39:02;18.58;;;4.25;;
62888;SDS011;48980;41.704;-8.820;2022-07-03T00:41:03;31.00;;;5.57;;
62888;SDS011;48980;41.704;-8.820;2022-07-03T00:43:04;17.67;;;4.90;;
62888;SDS011;48980;41.704;-8.820;2022-07-03T00:45:06;24.63;;;4.70;;
62888;SDS011;48980;41.704;-8.820;2022-07-03T00:47:08;27.35;;;4.57;;
62888;SDS011;48980;41.704;-8.820;2022-07-03T00:49:09;19.20;;;4.38;;
62888;SDS011;48980;41.704;-8.820;2022-07-03T00:51:11;21.75;;;4.20;;
62888;SDS011;48980;41.704;-8.820;2022-07-03T00:53:17;21.85;;;5.15;;
62888;SDS011;48980;41.704;-8.820;2022-07-03T00:55:28;24.13;;;4.13;;
62888;SDS011;48980;41.704;-8.820;2022-07-03T00:57:29;23.35;;;4.63;;
62888;SDS011;48980;41.704;-8.820;2022-07-03T00:59:30;30.52;;;3.80;;
62888;SDS011;48980;41.704;-8.820;2022-07-03T01:01:32;21.17;;;3.90;;
62888;SDS011;48980;41.704;-8.820;2022-07-03T01:03:35;21.60;;;4.57;;
62888;SDS011;48980;41.704;-8.820;2022-07-03T01:05:49;34.05;;;5.15;;
62888;SDS011;48980;41.704;-8.820;2022-07-03T01:15:05;30.70;;;6.03;;
62888;SDS011;48980;41.704;-8.820;2022-07-03T01:17:24;37.90;;;5.47;;
62888;SDS011;48980;41.704;-8.820;2022-07-03T01:19:35;31.63;;;4.85;;
62888;SDS011;48980;41.704;-8.820;2022-07-03T01:23:51;29.67;;;4.95;;
62888;SDS011;48980;41.704;-8.820;2022-07-03T01:26:12;36.17;;;4.47;;
62888;SDS011;48980;41.704;-8.820;2022-07-03T01:28:16;19.75;;;4.47;;
62888;SDS011;48980;41.704;-8.820;2022-07-03T01:30:21;16.40;;;4.20;;
62888;SDS011;48980;41.704;-8.820;2022-07-03T01:32:23;24.52;;;5.40;;
62888;SDS011;48980;41.704;-8.820;2022-07-03T01:34:30;20.85;;;3.55;;
62888;SDS011;48980;41.704;-8.820;2022-07-03T01:36:34;21.85;;;4.03;;
62888;SDS011;48980;41.704;-8.820;2022-07-03T01:38:40;22.63;;;4.45;;
62888;SDS011;48980;41.704;-8.820;2022-07-03T01:40:42;19.50;;;4.32;;
62888;SDS011;48980;41.704;-8.820;2022-07-03T01:42:44;19.52;;;4.82;;
62888;SDS011;48980;41.704;-8.820;2022-07-03T01:44:47;22.15;;;4.50;;
62888;SDS011;48980;41.704;-8.820;2022-07-03T01:46:51;25.70;;;5.18;;
62888;SDS011;48980;41.704;-8.820;2022-07-03T01:48:57;14.77;;;4.57;;
62888;SDS011;48980;41.704;-8.820;2022-07-03T01:50:59;21.65;;;5.15;;
62888;SDS011;48980;41.704;-8.820;2022-07-03T01:53:01;16.20;;;3.67;;
62888;SDS011;48980;41.704;-8.820;2022-07-03T01:55:03;20.45;;;4.43;;
62888;SDS011;48980;41.704;-8.820;2022-07-03T01:57:05;25.92;;;4.93;;
62888;SDS011;48980;41.704;-8.820;2022-07-03T01:59:07;30.38;;;4.35;;
62888;SDS011;48980;41.704;-8.820;2022-07-03T02:01:10;20.90;;;4.30;;
62888;SDS011;48980;41.704;-8.820;2022-07-03T02:03:27;32.08;;;5.07;;
62888;SDS011;48980;41.704;-8.820;2022-07-03T02:05:36;20.35;;;3.97;;
62888;SDS011;48980;41.704;-8.820;2022-07-03T02:07:49;20.92;;;4.47;;
62888;SDS011;48980;41.704;-8.820;2022-07-03T02:12:06;22.00;;;4.22;;
62888;SDS011;48980;41.704;-8.820;2022-07-03T02:14:19;10.85;;;4.65;;
62888;SDS011;48980;41.704;-8.820;2022-07-03T02:16:24;27.58;;;5.53;;
62888;SDS011;48980;41.704;-8.820;2022-07-03T02:18:36;25.30;;;4.22;;
62888;SDS011;48980;41.704;-8.820;2022-07-03T02:20:38;20.00;;;5.03;;
62888;SDS011;48980;41.704;-8.820;2022-07-03T02:28:21;17.55;;;4.65;;
62888;SDS011;48980;41.704;-8.820;2022-07-03T02:30:27;14.85;;;4.72;;
62888;SDS011;48980;41.704;-8.820;2022-07-03T02:34:31;26.77;;;4.72;;
62888;SDS011;48980;41.704;-8.820;2022-07-03T02:36:35;17.70;;;4.47;;
62888;SDS011;48980;41.704;-8.820;2022-07-03T02:38:36;28.60;;;4.50;;
62888;SDS011;48980;41.704;-8.820;2022-07-03T02:40:39;28.13;;;4.63;;
62888;SDS011;48980;41.704;-8.820;2022-07-03T02:42:47;28.42;;;5.25;;
62888;SDS011;48980;41.704;-8.820;2022-07-03T02:44:51;23.92;;;4.95;;
62888;SDS011;48980;41.704;-8.820;2022-07-03T02:51:35;18.13;;;4.40;;
62888;SDS011;48980;41.704;-8.820;2022-07-03T02:53:41;23.88;;;5.68;;
62888;SDS011;48980;41.704;-8.820;2022-07-03T02:55:49;20.77;;;4.53;;
62888;SDS011;48980;41.704;-8.820;2022-07-03T02:57:59;22.52;;;4.78;;
62888;SDS011;48980;41.704;-8.820;2022-07-03T03:00:25;35.55;;;4.82;;
62888;SDS011;48980;41.704;-8.820;2022-07-03T03:02:51;20.10;;;5.13;;
62888;SDS011;48980;41.704;-8.820;2022-07-03T03:05:03;21.48;;;3.67;;
62888;SDS011;48980;41.704;-8.820;2022-07-03T03:07:16;22.83;;;4.70;;
62888;SDS011;48980;41.704;-8.820;2022-07-03T03:09:24;21.15;;;4.78;;
62888;SDS011;48980;41.704;-8.820;2022-07-03T03:11:43;24.75;;;4.25;;
62888;SDS011;48980;41.704;-8.820;2022-07-03T03:13:46;17.75;;;4.63;;
62888;SDS011;48980;41.704;-8.820;2022-07-03T03:16:09;22.70;;;4.72;;
62888;SDS011;48980;41.704;-8.820;2022-07-03T03:18:12;20.67;;;4.90;;
62888;SDS011;48980;41.704;-8.820;2022-07-03T03:20:22;12.07;;;4.18;;
62888;SDS011;48980;41.704;-8.820;2022-07-03T03:22:49;22.27;;;4.90;;
62888;SDS011;48980;41.704;-8.820;2022-07-03T03:25:17;18.25;;;4.43;;
62888;SDS011;48980;41.704;-8.820;2022-07-03T03:27:18;17.17;;;5.72;;
62888;SDS011;48980;41.704;-8.820;2022-07-03T03:29:19;26.95;;;5.43;;
62888;SDS011;48980;41.704;-8.820;2022-07-03T03:31:20;14.73;;;5.07;;
62888;SDS011;48980;41.704;-8.820;2022-07-03T03:35:23;16.77;;;3.97;;
62888;SDS011;48980;41.704;-8.820;2022-07-03T03:37:24;16.30;;;4.95;;
62888;SDS011;48980;41.704;-8.820;2022-07-03T03:39:24;19.47;;;4.00;;
62888;SDS011;48980;41.704;-8.820;2022-07-03T03:41:25;26.77;;;4.22;;
62888;SDS011;48980;41.704;-8.820;2022-07-03T03:43:27;18.05;;;5.00;;
62888;SDS011;48980;41.704;-8.820;2022-07-03T03:45:28;17.15;;;4.47;;
62888;SDS011;48980;41.704;-8.820;2022-07-03T03:47:29;19.07;;;5.43;;
62888;SDS011;48980;41.704;-8.820;2022-07-03T03:49:29;24.23;;;5.18;;
62888;SDS011;48980;41.704;-8.820;2022-07-03T03:51:30;15.00;;;4.27;;
62888;SDS011;48980;41.704;-8.820;2022-07-03T03:53:31;14.50;;;4.00;;
62888;SDS011;48980;41.704;-8.820;2022-07-03T03:55:32;19.47;;;4.60;;
62888;SDS011;48980;41.704;-8.820;2022-07-03T03:57:32;23.50;;;5.03;;
62888;SDS011;48980;41.704;-8.820;2022-07-03T03:59:35;18.70;;;5.05;;
62888;SDS011;48980;41.704;-8.820;2022-07-03T04:01:36;29.75;;;5.43;;
62888;SDS011;48980;41.704;-8.820;2022-07-03T04:03:37;20.73;;;5.57;;
62888;SDS011;48980;41.704;-8.820;2022-07-03T04:05:38;19.60;;;4.55;;
62888;SDS011;48980;41.704;-8.820;2022-07-03T04:07:39;20.83;;;4.73;;
62888;SDS011;48980;41.704;-8.820;2022-07-03T04:09:40;31.40;;;4.73;;
62888;SDS011;48980;41.704;-8.820;2022-07-03T04:11:40;26.27;;;4.93;;
62888;SDS011;48980;41.704;-8.820;2022-07-03T04:13:41;29.13;;;5.47;;
62888;SDS011;48980;41.704;-8.820;2022-07-03T04:15:42;30.33;;;5.53;;
62888;SDS011;48980;41.704;-8.820;2022-07-03T04:17:43;20.95;;;5.35;;
62888;SDS011;48980;41.704;-8.820;2022-07-03T04:19:43;24.77;;;5.47;;
62888;SDS011;48980;41.704;-8.820;2022-07-03T04:21:44;20.60;;;4.93;;
62888;SDS011;48980;41.704;-8.820;2022-07-03T04:23:45;23.33;;;5.07;;
62888;SDS011;48980;41.704;-8.820;2022-07-03T04:25:46;23.60;;;5.67;;
62888;SDS011;48980;41.704;-8.820;2022-07-03T04:27:46;27.00;;;5.70;;
62888;SDS011;48980;41.704;-8.820;2022-07-03T04:29:47;19.00;;;4.23;;
62888;SDS011;48980;41.704;-8.820;2022-07-03T04:31:48;25.60;;;4.87;;
62888;SDS011;48980;41.704;-8.820;2022-07-03T04:33:48;19.73;;;5.03;;
62888;SDS011;48980;41.704;-8.820;2022-07-03T04:35:49;23.77;;;4.40;;
62888;SDS011;48980;41.704;-8.820;2022-07-03T04:37:50;18.93;;;5.63;;
62888;SDS011;48980;41.704;-8.820;2022-07-03T04:39:50;13.47;;;5.20;;
62888;SDS011;48980;41.704;-8.820;2022-07-03T04:41:51;24.43;;;5.60;;
62888;SDS011;48980;41.704;-8.820;2022-07-03T04:43:52;24.20;;;5.13;;
62888;SDS011;48980;41.704;-8.820;2022-07-03T04:45:52;28.97;;;5.87;;
62888;SDS011;48980;41.704;-8.820;2022-07-03T04:47:53;19.20;;;5.17;;
62888;SDS011;48980;41.704;-8.820;2022-07-03T04:49:54;23.13;;;4.95;;
62888;SDS011;48980;41.704;-8.820;2022-07-03T04:51:55;24.15;;;5.15;;
62888;SDS011;48980;41.704;-8.820;2022-07-03T04:53:56;29.33;;;5.75;;
62888;SDS011;48980;41.704;-8.820;2022-07-03T04:55:57;17.47;;;5.17;;
62888;SDS011;48980;41.704;-8.820;2022-07-03T04:57:58;19.77;;;4.73;;
62888;SDS011;48980;41.704;-8.820;2022-07-03T04:59:58;19.43;;;5.00;;
62888;SDS011;48980;41.704;-8.820;2022-07-03T05:01:59;20.73;;;4.70;;
62888;SDS011;48980;41.704;-8.820;2022-07-03T05:04:00;24.67;;;5.53;;
62888;SDS011;48980;41.704;-8.820;2022-07-03T05:06:00;29.42;;;6.07;;
62888;SDS011;48980;41.704;-8.820;2022-07-03T05:08:01;16.17;;;5.83;;
62888;SDS011;48980;41.704;-8.820;2022-07-03T05:10:02;17.10;;;5.97;;
62888;SDS011;48980;41.704;-8.820;2022-07-03T05:12:03;29.33;;;6.22;;
62888;SDS011;48980;41.704;-8.820;2022-07-03T05:14:04;30.05;;;7.07;;
62888;SDS011;48980;41.704;-8.820;2022-07-03T05:16:05;30.30;;;6.63;;
62888;SDS011;48980;41.704;-8.820;2022-07-03T05:18:06;36.00;;;6.80;;
62888;SDS011;48980;41.704;-8.820;2022-07-03T05:20:07;38.03;;;6.37;;
62888;SDS011;48980;41.704;-8.820;2022-07-03T05:22:27;31.30;;;6.47;;
62888;SDS011;48980;41.704;-8.820;2022-07-03T05:24:27;28.07;;;6.03;;
62888;SDS011;48980;41.704;-8.820;2022-07-03T05:26:28;30.00;;;6.53;;
62888;SDS011;48980;41.704;-8.820;2022-07-03T05:28:29;19.95;;;6.38;;
62888;SDS011;48980;41.704;-8.820;2022-07-03T05:30:30;34.58;;;7.13;;
62888;SDS011;48980;41.704;-8.820;2022-07-03T05:32:30;31.77;;;5.83;;
62888;SDS011;48980;41.704;-8.820;2022-07-03T05:34:31;33.60;;;6.00;;
62888;SDS011;48980;41.704;-8.820;2022-07-03T05:36:32;29.57;;;5.10;;
62888;SDS011;48980;41.704;-8.820;2022-07-03T05:38:33;30.05;;;5.53;;
62888;SDS011;48980;41.704;-8.820;2022-07-03T05:40:52;30.33;;;5.35;;
62888;SDS011;48980;41.704;-8.820;2022-07-03T05:42:53;22.73;;;5.95;;
62888;SDS011;48980;41.704;-8.820;2022-07-03T05:44:54;36.17;;;6.13;;
62888;SDS011;48980;41.704;-8.820;2022-07-03T05:46:55;31.90;;;6.72;;
62888;SDS011;48980;41.704;-8.820;2022-07-03T05:48:56;24.92;;;5.88;;
62888;SDS011;48980;41.704;-8.820;2022-07-03T05:50:56;39.00;;;8.03;;
62888;SDS011;48980;41.704;-8.820;2022-07-03T05:52:57;42.60;;;6.37;;
62888;SDS011;48980;41.704;-8.820;2022-07-03T05:54:58;26.87;;;7.23;;
62888;SDS011;48980;41.704;-8.820;2022-07-03T05:56:59;31.10;;;8.27;;
62888;SDS011;48980;41.704;-8.820;2022-07-03T05:58:59;37.93;;;8.37;;
62888;SDS011;48980;41.704;-8.820;2022-07-03T06:01:00;35.87;;;9.40;;
62888;SDS011;48980;41.704;-8.820;2022-07-03T06:03:01;25.43;;;9.87;;
62888;SDS011;48980;41.704;-8.820;2022-07-03T06:05:02;44.25;;;13.70;;
62888;SDS011;48980;41.704;-8.820;2022-07-03T06:07:03;45.70;;;10.30;;
62888;SDS011;48980;41.704;-8.820;2022-07-03T06:09:04;30.40;;;9.43;;
62888;SDS011;48980;41.704;-8.820;2022-07-03T06:11:05;28.60;;;10.45;;
62888;SDS011;48980;41.704;-8.820;2022-07-03T06:13:06;39.87;;;10.67;;
62888;SDS011;48980;41.704;-8.820;2022-07-03T06:15:07;30.20;;;9.50;;
62888;SDS011;48980;41.704;-8.820;2022-07-03T06:17:07;33.58;;;8.95;;
62888;SDS011;48980;41.704;-8.820;2022-07-03T06:19:08;35.20;;;9.37;;
62888;SDS011;48980;41.704;-8.820;2022-07-03T06:21:09;29.53;;;8.57;;
62888;SDS011;48980;41.704;-8.820;2022-07-03T06:23:10;23.83;;;8.40;;
62888;SDS011;48980;41.704;-8.820;2022-07-03T06:25:10;37.65;;;8.43;;
62888;SDS011;48980;41.704;-8.820;2022-07-03T06:27:12;31.35;;;8.85;;
62888;SDS011;48980;41.704;-8.820;2022-07-03T06:29:13;35.37;;;8.40;;
62888;SDS011;48980;41.704;-8.820;2022-07-03T06:31:13;31.80;;;7.70;;
62888;SDS011;48980;41.704;-8.820;2022-07-03T06:33:14;33.33;;;7.90;;
62888;SDS011;48980;41.704;-8.820;2022-07-03T06:35:15;27.43;;;7.87;;
62888;SDS011;48980;41.704;-8.820;2022-07-03T06:37:15;35.70;;;8.03;;
62888;SDS011;48980;41.704;-8.820;2022-07-03T06:39:16;32.58;;;8.73;;
62888;SDS011;48980;41.704;-8.820;2022-07-03T06:41:17;23.83;;;7.57;;
62888;SDS011;48980;41.704;-8.820;2022-07-03T06:43:18;31.43;;;8.67;;
62888;SDS011;48980;41.704;-8.820;2022-07-03T06:45:18;29.48;;;9.20;;
62888;SDS011;48980;41.704;-8.820;2022-07-03T06:47:19;30.87;;;9.97;;
62888;SDS011;48980;41.704;-8.820;2022-07-03T06:49:20;32.75;;;9.75;;
62888;SDS011;48980;41.704;-8.820;2022-07-03T06:51:21;34.85;;;10.13;;
62888;SDS011;48980;41.704;-8.820;2022-07-03T06:53:22;32.07;;;10.20;;
62888;SDS011;48980;41.704;-8.820;2022-07-03T06:55:22;38.33;;;10.90;;
62888;SDS011;48980;41.704;-8.820;2022-07-03T06:57:23;31.97;;;9.93;;
62888;SDS011;48980;41.704;-8.820;2022-07-03T06:59:24;29.75;;;9.02;;
62888;SDS011;48980;41.704;-8.820;2022-07-03T07:01:25;34.57;;;8.70;;
62888;SDS011;48980;41.704;-8.820;2022-07-03T07:03:25;29.97;;;8.07;;
62888;SDS011;48980;41.704;-8.820;2022-07-03T07:05:26;46.60;;;9.80;;
62888;SDS011;48980;41.704;-8.820;2022-07-03T07:07:27;38.50;;;6.93;;
62888;SDS011;48980;41.704;-8.820;2022-07-03T07:09:27;33.53;;;8.53;;
62888;SDS011;48980;41.704;-8.820;2022-07-03T07:11:28;35.83;;;8.40;;
62888;SDS011;48980;41.704;-8.820;2022-07-03T07:13:29;35.33;;;9.53;;
62888;SDS011;48980;41.704;-8.820;2022-07-03T07:15:29;45.27;;;8.00;;
62888;SDS011;48980;41.704;-8.820;2022-07-03T07:17:30;35.80;;;8.30;;
62888;SDS011;48980;41.704;-8.820;2022-07-03T07:19:31;42.63;;;7.97;;
62888;SDS011;48980;41.704;-8.820;2022-07-03T07:21:32;77.28;;;10.30;;
62888;SDS011;48980;41.704;-8.820;2022-07-03T07:23:32;23.20;;;6.30;;
62888;SDS011;48980;41.704;-8.820;2022-07-03T07:25:33;27.33;;;7.83;;
62888;SDS011;48980;41.704;-8.820;2022-07-03T07:27:34;25.50;;;7.00;;
62888;SDS011;48980;41.704;-8.820;2022-07-03T07:29:34;28.03;;;6.13;;
62888;SDS011;48980;41.704;-8.820;2022-07-03T07:31:35;27.77;;;6.80;;
62888;SDS011;48980;41.704;-8.820;2022-07-03T07:33:36;28.93;;;7.13;;
62888;SDS011;48980;41.704;-8.820;2022-07-03T07:35:36;26.40;;;7.63;;
62888;SDS011;48980;41.704;-8.820;2022-07-03T07:37:37;25.57;;;7.93;;
62888;SDS011;48980;41.704;-8.820;2022-07-03T07:39:38;31.20;;;8.07;;
62888;SDS011;48980;41.704;-8.820;2022-07-03T07:41:38;29.77;;;8.47;;
62888;SDS011;48980;41.704;-8.820;2022-07-03T07:43:39;38.67;;;8.77;;
62888;SDS011;48980;41.704;-8.820;2022-07-03T07:45:40;50.00;;;9.33;;
62888;SDS011;48980;41.704;-8.820;2022-07-03T07:47:41;41.60;;;11.52;;
62888;SDS011;48980;41.704;-8.820;2022-07-03T07:49:41;55.57;;;11.37;;
62888;SDS011;48980;41.704;-8.820;2022-07-03T07:51:42;57.40;;;12.10;;
62888;SDS011;48980;41.704;-8.820;2022-07-03T07:53:43;39.07;;;10.70;;
62888;SDS011;48980;41.704;-8.820;2022-07-03T07:55:44;41.55;;;10.18;;
62888;SDS011;48980;41.704;-8.820;2022-07-03T07:57:45;40.03;;;11.20;;
62888;SDS011;48980;41.704;-8.820;2022-07-03T08:01:47;53.53;;;11.52;;
62888;SDS011;48980;41.704;-8.820;2022-07-03T08:04:07;41.05;;;12.07;;
62888;SDS011;48980;41.704;-8.820;2022-07-03T08:06:26;48.35;;;11.27;;
62888;SDS011;48980;41.704;-8.820;2022-07-03T08:08:26;43.93;;;12.13;;
62888;SDS011;48980;41.704;-8.820;2022-07-03T08:10:27;34.90;;;10.07;;
62888;SDS011;48980;41.704;-8.820;2022-07-03T08:12:28;38.87;;;11.73;;
62888;SDS011;48980;41.704;-8.820;2022-07-03T08:14:28;38.10;;;11.20;;
62888;SDS011;48980;41.704;-8.820;2022-07-03T08:16:29;38.00;;;11.50;;
62888;SDS011;48980;41.704;-8.820;2022-07-03T08:18:30;44.57;;;11.60;;
62888;SDS011;48980;41.704;-8.820;2022-07-03T08:20:31;52.20;;;14.07;;
62888;SDS011;48980;41.704;-8.820;2022-07-03T08:22:32;51.85;;;12.15;;
62888;SDS011;48980;41.704;-8.820;2022-07-03T08:24:33;49.30;;;11.87;;
62888;SDS011;48980;41.704;-8.820;2022-07-03T08:26:33;45.83;;;11.07;;
62888;SDS011;48980;41.704;-8.820;2022-07-03T08:28:34;45.13;;;11.70;;
62888;SDS011;48980;41.704;-8.820;2022-07-03T08:30:35;34.00;;;10.20;;
62888;SDS011;48980;41.704;-8.820;2022-07-03T08:32:36;30.40;;;10.40;;
62888;SDS011;48980;41.704;-8.820;2022-07-03T08:34:36;27.87;;;10.23;;
62888;SDS011;48980;41.704;-8.820;2022-07-03T08:36:37;27.38;;;10.82;;
62888;SDS011;48980;41.704;-8.820;2022-07-03T08:38:38;40.53;;;11.20;;
62888;SDS011;48980;41.704;-8.820;2022-07-03T08:40:39;38.50;;;10.87;;
62888;SDS011;48980;41.704;-8.820;2022-07-03T08:42:45;44.55;;;12.00;;
62888;SDS011;48980;41.704;-8.820;2022-07-03T08:44:47;36.22;;;10.82;;
62888;SDS011;48980;41.704;-8.820;2022-07-03T08:46:52;29.05;;;11.35;;
62888;SDS011;48980;41.704;-8.820;2022-07-03T08:48:55;35.28;;;12.98;;
62888;SDS011;48980;41.704;-8.820;2022-07-03T08:50:59;27.88;;;10.85;;
62888;SDS011;48980;41.704;-8.820;2022-07-03T08:53:01;31.50;;;11.85;;
62888;SDS011;48980;41.704;-8.820;2022-07-03T08:57:04;36.50;;;12.18;;
62888;SDS011;48980;41.704;-8.820;2022-07-03T09:01:08;33.33;;;11.32;;
62888;SDS011;48980;41.704;-8.820;2022-07-03T09:03:09;33.67;;;12.18;;
62888;SDS011;48980;41.704;-8.820;2022-07-03T09:05:11;29.67;;;10.88;;
62888;SDS011;48980;41.704;-8.820;2022-07-03T09:07:13;32.33;;;11.27;;
62888;SDS011;48980;41.704;-8.820;2022-07-03T09:11:15;30.02;;;10.65;;
62888;SDS011;48980;41.704;-8.820;2022-07-03T09:13:17;44.35;;;10.73;;
62888;SDS011;48980;41.704;-8.820;2022-07-03T09:15:18;39.63;;;10.88;;
62888;SDS011;48980;41.704;-8.820;2022-07-03T09:17:22;26.77;;;9.02;;
62888;SDS011;48980;41.704;-8.820;2022-07-03T09:19:44;24.27;;;9.60;;
62888;SDS011;48980;41.704;-8.820;2022-07-03T09:21:45;27.70;;;10.32;;
62888;SDS011;48980;41.704;-8.820;2022-07-03T09:23:48;30.08;;;9.82;;
62888;SDS011;48980;41.704;-8.820;2022-07-03T09:25:53;35.65;;;8.93;;
62888;SDS011;48980;41.704;-8.820;2022-07-03T09:27:55;27.73;;;9.85;;
62888;SDS011;48980;41.704;-8.820;2022-07-03T09:32:02;25.83;;;9.93;;
62888;SDS011;48980;41.704;-8.820;2022-07-03T09:34:03;33.70;;;9.45;;
62888;SDS011;48980;41.704;-8.820;2022-07-03T09:36:07;24.55;;;9.02;;
62888;SDS011;48980;41.704;-8.820;2022-07-03T09:38:08;27.05;;;8.93;;
62888;SDS011;48980;41.704;-8.820;2022-07-03T09:40:09;46.90;;;9.97;;
62888;SDS011;48980;41.704;-8.820;2022-07-03T09:42:10;30.77;;;9.20;;
62888;SDS011;48980;41.704;-8.820;2022-07-03T09:44:19;24.60;;;8.88;;
62888;SDS011;48980;41.704;-8.820;2022-07-03T09:46:49;18.95;;;7.70;;
62888;SDS011;48980;41.704;-8.820;2022-07-03T09:49:18;16.77;;;7.68;;
62888;SDS011;48980;41.704;-8.820;2022-07-03T09:51:20;20.75;;;7.30;;
62888;SDS011;48980;41.704;-8.820;2022-07-03T09:53:23;21.80;;;8.90;;
62888;SDS011;48980;41.704;-8.820;2022-07-03T09:55:24;19.58;;;9.02;;
62888;SDS011;48980;41.704;-8.820;2022-07-03T09:57:28;27.17;;;8.63;;
62888;SDS011;48980;41.704;-8.820;2022-07-03T09:59:30;24.13;;;8.13;;
62888;SDS011;48980;41.704;-8.820;2022-07-03T10:01:31;43.92;;;10.38;;
62888;SDS011;48980;41.704;-8.820;2022-07-03T10:05:36;33.10;;;9.87;;
62888;SDS011;48980;41.704;-8.820;2022-07-03T10:07:54;23.77;;;8.38;;
62888;SDS011;48980;41.704;-8.820;2022-07-03T10:10:04;35.60;;;9.43;;
62888;SDS011;48980;41.704;-8.820;2022-07-03T10:14:06;28.40;;;10.30;;
62888;SDS011;48980;41.704;-8.820;2022-07-03T10:16:08;35.30;;;10.93;;
62888;SDS011;48980;41.704;-8.820;2022-07-03T10:18:10;25.50;;;10.57;;
62888;SDS011;48980;41.704;-8.820;2022-07-03T10:20:13;25.20;;;10.13;;
62888;SDS011;48980;41.704;-8.820;2022-07-03T10:22:18;26.48;;;10.90;;
62888;SDS011;48980;41.704;-8.820;2022-07-03T10:24:22;36.08;;;10.60;;
62888;SDS011;48980;41.704;-8.820;2022-07-03T10:26:24;38.55;;;10.30;;
62888;SDS011;48980;41.704;-8.820;2022-07-03T10:28:25;29.50;;;9.65;;
62888;SDS011;48980;41.704;-8.820;2022-07-03T10:30:28;28.52;;;8.45;;
62888;SDS011;48980;41.704;-8.820;2022-07-03T10:34:32;24.10;;;7.03;;
62888;SDS011;48980;41.704;-8.820;2022-07-03T10:36:34;17.35;;;6.90;;
62888;SDS011;48980;41.704;-8.820;2022-07-03T10:38:38;16.65;;;6.57;;
62888;SDS011;48980;41.704;-8.820;2022-07-03T10:43:15;22.80;;;7.13;;
62888;SDS011;48980;41.704;-8.820;2022-07-03T10:48:11;18.92;;;7.63;;
62888;SDS011;48980;41.704;-8.820;2022-07-03T10:52:17;15.40;;;6.75;;
62888;SDS011;48980;41.704;-8.820;2022-07-03T10:54:19;15.68;;;6.50;;
62888;SDS011;48980;41.704;-8.820;2022-07-03T10:56:23;13.75;;;5.90;;
62888;SDS011;48980;41.704;-8.820;2022-07-03T10:58:23;13.40;;;6.53;;
62888;SDS011;48980;41.704;-8.820;2022-07-03T11:00:27;12.07;;;6.32;;
62888;SDS011;48980;41.704;-8.820;2022-07-03T11:09:08;14.52;;;6.03;;
62888;SDS011;48980;41.704;-8.820;2022-07-03T11:11:32;12.73;;;6.00;;
62888;SDS011;48980;41.704;-8.820;2022-07-03T11:14:17;15.60;;;5.55;;
62888;SDS011;48980;41.704;-8.820;2022-07-03T11:16:22;18.00;;;6.13;;
62888;SDS011;48980;41.704;-8.820;2022-07-03T11:18:31;21.27;;;6.20;;
62888;SDS011;48980;41.704;-8.820;2022-07-03T11:20:36;23.48;;;6.68;;
62888;SDS011;48980;41.704;-8.820;2022-07-03T11:24:59;5.07;;;3.78;;
62888;SDS011;48980;41.704;-8.820;2022-07-03T11:29:27;4.90;;;3.78;;
62888;SDS011;48980;41.704;-8.820;2022-07-03T11:31:29;5.07;;;3.30;;
62888;SDS011;48980;41.704;-8.820;2022-07-03T11:35:52;6.10;;;3.70;;
62888;SDS011;48980;41.704;-8.820;2022-07-03T11:37:54;8.07;;;3.55;;
62888;SDS011;48980;41.704;-8.820;2022-07-03T11:39:55;3.60;;;3.40;;
62888;SDS011;48980;41.704;-8.820;2022-07-03T11:42:02;8.23;;;4.40;;
62888;SDS011;48980;41.704;-8.820;2022-07-03T11:44:04;3.60;;;3.40;;
62888;SDS011;48980;41.704;-8.820;2022-07-03T11:46:06;4.55;;;3.67;;
62888;SDS011;48980;41.704;-8.820;2022-07-03T11:48:08;3.70;;;3.42;;
62888;SDS011;48980;41.704;-8.820;2022-07-03T11:50:09;3.80;;;3.55;;
62888;SDS011;48980;41.704;-8.820;2022-07-03T11:52:09;3.85;;;3.28;;
62888;SDS011;48980;41.704;-8.820;2022-07-03T11:54:10;5.70;;;3.10;;
62888;SDS011;48980;41.704;-8.820;2022-07-03T11:56:11;3.92;;;3.60;;
62888;SDS011;48980;41.704;-8.820;2022-07-03T11:58:13;4.28;;;3.60;;
62888;SDS011;48980;41.704;-8.820;2022-07-03T12:00:14;5.93;;;3.95;;
62888;SDS011;48980;41.704;-8.820;2022-07-03T12:02:15;3.75;;;3.55;;
62888;SDS011;48980;41.704;-8.820;2022-07-03T12:04:19;4.25;;;3.85;;
62888;SDS011;48980;41.704;-8.820;2022-07-03T12:06:22;3.65;;;3.45;;
62888;SDS011;48980;41.704;-8.820;2022-07-03T12:08:27;3.92;;;3.35;;
62888;SDS011;48980;41.704;-8.820;2022-07-03T12:10:41;4.25;;;3.63;;
62888;SDS011;48980;41.704;-8.820;2022-07-03T12:12:42;2.75;;;2.50;;
62888;SDS011;48980;41.704;-8.820;2022-07-03T12:14:43;3.65;;;2.95;;
62888;SDS011;48980;41.704;-8.820;2022-07-03T12:16:51;4.60;;;2.83;;
62888;SDS011;48980;41.704;-8.820;2022-07-03T12:18:53;2.75;;;2.65;;
62888;SDS011;48980;41.704;-8.820;2022-07-03T12:20:54;5.55;;;3.65;;
62888;SDS011;48980;41.704;-8.820;2022-07-03T12:22:55;4.68;;;2.60;;
62888;SDS011;48980;41.704;-8.820;2022-07-03T12:27:07;2.95;;;2.75;;
62888;SDS011;48980;41.704;-8.820;2022-07-03T12:29:12;6.30;;;3.65;;
62888;SDS011;48980;41.704;-8.820;2022-07-03T12:31:14;6.53;;;3.45;;
62888;SDS011;48980;41.704;-8.820;2022-07-03T12:33:15;3.25;;;3.00;;
62888;SDS011;48980;41.704;-8.820;2022-07-03T12:35:23;6.82;;;3.92;;
62888;SDS011;48980;41.704;-8.820;2022-07-03T12:37:34;10.82;;;4.38;;
62888;SDS011;48980;41.704;-8.820;2022-07-03T12:39:41;9.55;;;4.10;;
62888;SDS011;48980;41.704;-8.820;2022-07-03T12:41:43;8.15;;;4.05;;
62888;SDS011;48980;41.704;-8.820;2022-07-03T12:43:48;13.13;;;4.18;;
62888;SDS011;48980;41.704;-8.820;2022-07-03T12:45:49;9.90;;;4.00;;
62888;SDS011;48980;41.704;-8.820;2022-07-03T12:47:56;7.30;;;4.50;;
62888;SDS011;48980;41.704;-8.820;2022-07-03T12:50:05;16.70;;;5.85;;
62888;SDS011;48980;41.704;-8.820;2022-07-03T12:52:07;9.00;;;4.72;;
62888;SDS011;48980;41.704;-8.820;2022-07-03T12:56:21;9.48;;;5.22;;
62888;SDS011;48980;41.704;-8.820;2022-07-03T12:58:22;11.93;;;5.10;;
62888;SDS011;48980;41.704;-8.820;2022-07-03T13:00:42;5.47;;;3.92;;
62888;SDS011;48980;41.704;-8.820;2022-07-03T13:02:44;8.80;;;5.72;;
62888;SDS011;48980;41.704;-8.820;2022-07-03T13:04:46;10.82;;;4.90;;
62888;SDS011;48980;41.704;-8.820;2022-07-03T13:06:47;13.20;;;5.10;;
62888;SDS011;48980;41.704;-8.820;2022-07-03T13:09:00;9.93;;;4.65;;
62888;SDS011;48980;41.704;-8.820;2022-07-03T13:11:03;12.70;;;5.28;;